sensor_id;sensor_type;location;lat;lon;timestamp;P1;durP1;ratioP1;P2;durP2;ratioP2
12956;SDS011;6543;48.836;10.092;2023-09-07T00:01:13;4.33;;;3.80;;
12956;SDS011;6543;48.836;10.092;2023-09-07T00:03:40;7.33;;;3.83;;
12956;SDS011;6543;48.836;10.092;2023-09-07T00:06:08;5.10;;;4.10;;
12956;SDS011;6543;48.836;10.092;2023-09-07T00:08:35;10.43;;;4.70;;
12956;SDS011;6543;48.836;10.092;2023-09-07T00:11:02;5.30;;;4.67;;
12956;SDS011;6543;48.836;10.092;2023-09-07T00:13:29;8.53;;;4.47;;
12956;SDS011;6543;48.836;10.092;2023-09-07T00:15:58;5.27;;;4.40;;
12956;SDS011;6543;48.836;10.092;2023-09-07T00:18:25;9.10;;;4.80;;
12956;SDS011;6543;48.836;10.092;2023-09-07T00:20:52;5.93;;;4.23;;
12956;SDS011;6543;48.836;10.092;2023-09-07T00:23:20;5.97;;;4.33;;
12956;SDS011;6543;48.836;10.092;2023-09-07T00:25:47;4.60;;;3.77;;
12956;SDS011;6543;48.836;10.092;2023-09-07T00:28:14;6.40;;;4.27;;
12956;SDS011;6543;48.836;10.092;2023-09-07T00:30:41;5.77;;;3.70;;
12956;SDS011;6543;48.836;10.092;2023-09-07T00:33:08;3.77;;;3.37;;
12956;SDS011;6543;48.836;10.092;2023-09-07T00:35:35;3.87;;;3.53;;
12956;SDS011;6543;48.836;10.092;2023-09-07T00:38:03;5.17;;;4.50;;
12956;SDS011;6543;48.836;10.092;2023-09-07T00:40:31;5.37;;;4.10;;
12956;SDS011;6543;48.836;10.092;2023-09-07T00:42:58;5.60;;;4.00;;
12956;SDS011;6543;48.836;10.092;2023-09-07T00:45:25;4.00;;;3.70;;
12956;SDS011;6543;48.836;10.092;2023-09-07T00:47:53;8.60;;;4.20;;
12956;SDS011;6543;48.836;10.092;2023-09-07T00:50:20;5.77;;;4.60;;
12956;SDS011;6543;48.836;10.092;2023-09-07T00:52:47;7.20;;;4.33;;
12956;SDS011;6543;48.836;10.092;2023-09-07T00:55:14;6.63;;;4.20;;
12956;SDS011;6543;48.836;10.092;2023-09-07T00:57:43;6.40;;;3.93;;
12956;SDS011;6543;48.836;10.092;2023-09-07T01:00:10;4.13;;;3.40;;
12956;SDS011;6543;48.836;10.092;2023-09-07T01:02:37;4.80;;;3.60;;
12956;SDS011;6543;48.836;10.092;2023-09-07T01:05:04;4.73;;;3.93;;
12956;SDS011;6543;48.836;10.092;2023-09-07T01:07:32;4.23;;;3.77;;
12956;SDS011;6543;48.836;10.092;2023-09-07T01:10:03;4.27;;;3.83;;
12956;SDS011;6543;48.836;10.092;2023-09-07T01:12:32;3.93;;;3.43;;
12956;SDS011;6543;48.836;10.092;2023-09-07T01:15:01;4.83;;;3.73;;
12956;SDS011;6543;48.836;10.092;2023-09-07T01:17:30;6.30;;;3.80;;
12956;SDS011;6543;48.836;10.092;2023-09-07T01:19:58;4.13;;;3.40;;
12956;SDS011;6543;48.836;10.092;2023-09-07T01:22:32;5.47;;;3.10;;
12956;SDS011;6543;48.836;10.092;2023-09-07T01:25:00;7.40;;;3.27;;
12956;SDS011;6543;48.836;10.092;2023-09-07T01:27:27;4.83;;;3.90;;
12956;SDS011;6543;48.836;10.092;2023-09-07T01:29:54;4.03;;;3.30;;
12956;SDS011;6543;48.836;10.092;2023-09-07T01:32:21;4.00;;;3.60;;
12956;SDS011;6543;48.836;10.092;2023-09-07T01:34:48;5.10;;;3.47;;
12956;SDS011;6543;48.836;10.092;2023-09-07T01:37:15;4.00;;;3.10;;
12956;SDS011;6543;48.836;10.092;2023-09-07T01:39:43;5.70;;;4.10;;
12956;SDS011;6543;48.836;10.092;2023-09-07T01:42:10;4.03;;;3.63;;
12956;SDS011;6543;48.836;10.092;2023-09-07T01:44:36;5.90;;;4.10;;
12956;SDS011;6543;48.836;10.092;2023-09-07T01:47:03;4.73;;;3.90;;
12956;SDS011;6543;48.836;10.092;2023-09-07T01:49:30;4.53;;;3.60;;
12956;SDS011;6543;48.836;10.092;2023-09-07T01:51:57;4.80;;;3.60;;
12956;SDS011;6543;48.836;10.092;2023-09-07T01:54:24;3.73;;;3.43;;
12956;SDS011;6543;48.836;10.092;2023-09-07T01:56:52;4.30;;;3.90;;
12956;SDS011;6543;48.836;10.092;2023-09-07T01:59:18;5.27;;;3.90;;
12956;SDS011;6543;48.836;10.092;2023-09-07T02:01:45;6.00;;;3.60;;
12956;SDS011;6543;48.836;10.092;2023-09-07T02:04:12;4.20;;;3.80;;
12956;SDS011;6543;48.836;10.092;2023-09-07T02:06:39;6.70;;;3.67;;
12956;SDS011;6543;48.836;10.092;2023-09-07T02:09:05;3.93;;;3.60;;
12956;SDS011;6543;48.836;10.092;2023-09-07T02:11:33;5.60;;;3.70;;
12956;SDS011;6543;48.836;10.092;2023-09-07T02:14:01;4.57;;;3.67;;
12956;SDS011;6543;48.836;10.092;2023-09-07T02:16:28;6.33;;;3.63;;
12956;SDS011;6543;48.836;10.092;2023-09-07T02:19:00;5.53;;;3.77;;
12956;SDS011;6543;48.836;10.092;2023-09-07T02:21:28;4.43;;;4.00;;
12956;SDS011;6543;48.836;10.092;2023-09-07T02:23:55;4.63;;;4.07;;
12956;SDS011;6543;48.836;10.092;2023-09-07T02:26:22;4.33;;;3.93;;
12956;SDS011;6543;48.836;10.092;2023-09-07T02:28:49;4.23;;;3.83;;
12956;SDS011;6543;48.836;10.092;2023-09-07T02:31:17;5.43;;;4.13;;
12956;SDS011;6543;48.836;10.092;2023-09-07T02:33:44;5.77;;;4.50;;
12956;SDS011;6543;48.836;10.092;2023-09-07T02:36:11;6.80;;;4.90;;
12956;SDS011;6543;48.836;10.092;2023-09-07T02:38:38;7.73;;;4.93;;
12956;SDS011;6543;48.836;10.092;2023-09-07T02:41:05;10.13;;;4.80;;
12956;SDS011;6543;48.836;10.092;2023-09-07T02:43:31;5.70;;;4.10;;
12956;SDS011;6543;48.836;10.092;2023-09-07T02:45:58;4.20;;;3.80;;
12956;SDS011;6543;48.836;10.092;2023-09-07T02:48:26;7.10;;;4.40;;
12956;SDS011;6543;48.836;10.092;2023-09-07T02:50:53;6.63;;;4.40;;
12956;SDS011;6543;48.836;10.092;2023-09-07T02:53:23;5.93;;;4.10;;
12956;SDS011;6543;48.836;10.092;2023-09-07T02:55:50;4.67;;;4.07;;
12956;SDS011;6543;48.836;10.092;2023-09-07T02:58:16;4.33;;;3.93;;
12956;SDS011;6543;48.836;10.092;2023-09-07T03:00:44;8.40;;;3.60;;
12956;SDS011;6543;48.836;10.092;2023-09-07T03:03:12;6.87;;;3.83;;
12956;SDS011;6543;48.836;10.092;2023-09-07T03:05:41;6.67;;;3.90;;
12956;SDS011;6543;48.836;10.092;2023-09-07T03:08:08;4.03;;;3.73;;
12956;SDS011;6543;48.836;10.092;2023-09-07T03:10:35;5.50;;;3.80;;
12956;SDS011;6543;48.836;10.092;2023-09-07T03:13:02;4.27;;;3.50;;
12956;SDS011;6543;48.836;10.092;2023-09-07T03:15:30;6.83;;;3.70;;
12956;SDS011;6543;48.836;10.092;2023-09-07T03:17:57;4.60;;;3.30;;
12956;SDS011;6543;48.836;10.092;2023-09-07T03:20:24;5.87;;;3.40;;
12956;SDS011;6543;48.836;10.092;2023-09-07T03:22:52;6.87;;;3.87;;
12956;SDS011;6543;48.836;10.092;2023-09-07T03:25:19;6.90;;;3.83;;
12956;SDS011;6543;48.836;10.092;2023-09-07T03:27:45;6.73;;;3.70;;
12956;SDS011;6543;48.836;10.092;2023-09-07T03:30:12;7.03;;;4.03;;
12956;SDS011;6543;48.836;10.092;2023-09-07T03:32:39;7.23;;;4.27;;
12956;SDS011;6543;48.836;10.092;2023-09-07T03:35:06;5.03;;;3.70;;
12956;SDS011;6543;48.836;10.092;2023-09-07T03:37:34;3.87;;;3.40;;
12956;SDS011;6543;48.836;10.092;2023-09-07T03:40:03;5.03;;;4.00;;
12956;SDS011;6543;48.836;10.092;2023-09-07T03:42:32;4.17;;;3.80;;
12956;SDS011;6543;48.836;10.092;2023-09-07T03:44:59;5.27;;;3.97;;
12956;SDS011;6543;48.836;10.092;2023-09-07T03:47:25;4.20;;;3.77;;
12956;SDS011;6543;48.836;10.092;2023-09-07T03:49:54;5.93;;;3.57;;
12956;SDS011;6543;48.836;10.092;2023-09-07T03:52:21;5.43;;;3.90;;
12956;SDS011;6543;48.836;10.092;2023-09-07T03:54:49;4.73;;;4.20;;
12956;SDS011;6543;48.836;10.092;2023-09-07T03:57:18;10.13;;;4.70;;
12956;SDS011;6543;48.836;10.092;2023-09-07T03:59:45;6.00;;;4.23;;
12956;SDS011;6543;48.836;10.092;2023-09-07T04:02:12;6.83;;;4.90;;
12956;SDS011;6543;48.836;10.092;2023-09-07T04:04:39;10.23;;;4.17;;
12956;SDS011;6543;48.836;10.092;2023-09-07T04:07:06;7.17;;;4.87;;
12956;SDS011;6543;48.836;10.092;2023-09-07T04:09:33;6.13;;;4.97;;
12956;SDS011;6543;48.836;10.092;2023-09-07T04:12:00;7.37;;;4.67;;
12956;SDS011;6543;48.836;10.092;2023-09-07T04:14:30;5.20;;;4.53;;
12956;SDS011;6543;48.836;10.092;2023-09-07T04:16:57;5.97;;;5.20;;
12956;SDS011;6543;48.836;10.092;2023-09-07T04:19:24;6.23;;;4.57;;
12956;SDS011;6543;48.836;10.092;2023-09-07T04:21:50;9.50;;;4.87;;
12956;SDS011;6543;48.836;10.092;2023-09-07T04:24:17;4.87;;;4.37;;
12956;SDS011;6543;48.836;10.092;2023-09-07T04:26:44;6.70;;;4.53;;
12956;SDS011;6543;48.836;10.092;2023-09-07T04:29:11;7.10;;;4.90;;
12956;SDS011;6543;48.836;10.092;2023-09-07T04:31:39;5.00;;;4.10;;
12956;SDS011;6543;48.836;10.092;2023-09-07T04:34:06;5.13;;;4.13;;
12956;SDS011;6543;48.836;10.092;2023-09-07T04:36:33;4.57;;;3.93;;
12956;SDS011;6543;48.836;10.092;2023-09-07T04:39:01;5.93;;;4.20;;
12956;SDS011;6543;48.836;10.092;2023-09-07T04:41:28;9.40;;;4.63;;
12956;SDS011;6543;48.836;10.092;2023-09-07T04:43:56;5.67;;;4.37;;
12956;SDS011;6543;48.836;10.092;2023-09-07T04:46:23;6.70;;;4.80;;
12956;SDS011;6543;48.836;10.092;2023-09-07T04:48:51;9.93;;;4.90;;
12956;SDS011;6543;48.836;10.092;2023-09-07T04:51:18;10.00;;;5.00;;
12956;SDS011;6543;48.836;10.092;2023-09-07T04:53:47;8.27;;;4.70;;
12956;SDS011;6543;48.836;10.092;2023-09-07T04:56:13;11.53;;;5.40;;
12956;SDS011;6543;48.836;10.092;2023-09-07T04:58:41;14.10;;;5.37;;
12956;SDS011;6543;48.836;10.092;2023-09-07T05:01:09;9.80;;;5.00;;
12956;SDS011;6543;48.836;10.092;2023-09-07T05:03:37;5.30;;;4.03;;
12956;SDS011;6543;48.836;10.092;2023-09-07T05:06:07;8.57;;;4.63;;
12956;SDS011;6543;48.836;10.092;2023-09-07T05:08:34;6.50;;;5.30;;
12956;SDS011;6543;48.836;10.092;2023-09-07T05:11:02;6.63;;;4.60;;
12956;SDS011;6543;48.836;10.092;2023-09-07T05:13:29;11.10;;;5.60;;
12956;SDS011;6543;48.836;10.092;2023-09-07T05:15:57;5.93;;;5.27;;
12956;SDS011;6543;48.836;10.092;2023-09-07T05:18:25;5.80;;;4.97;;
12956;SDS011;6543;48.836;10.092;2023-09-07T05:20:52;9.87;;;5.07;;
12956;SDS011;6543;48.836;10.092;2023-09-07T05:23:20;6.90;;;4.70;;
12956;SDS011;6543;48.836;10.092;2023-09-07T05:25:50;6.83;;;4.80;;
12956;SDS011;6543;48.836;10.092;2023-09-07T05:28:18;10.52;;;4.78;;
12956;SDS011;6543;48.836;10.092;2023-09-07T05:30:46;5.47;;;4.50;;
12956;SDS011;6543;48.836;10.092;2023-09-07T05:33:14;6.17;;;4.70;;
12956;SDS011;6543;48.836;10.092;2023-09-07T05:35:42;6.67;;;4.83;;
12956;SDS011;6543;48.836;10.092;2023-09-07T05:38:10;8.27;;;4.57;;
12956;SDS011;6543;48.836;10.092;2023-09-07T05:40:39;7.13;;;4.40;;
12956;SDS011;6543;48.836;10.092;2023-09-07T05:43:07;6.00;;;4.60;;
12956;SDS011;6543;48.836;10.092;2023-09-07T05:45:34;5.07;;;4.43;;
12956;SDS011;6543;48.836;10.092;2023-09-07T05:48:02;9.43;;;4.93;;
12956;SDS011;6543;48.836;10.092;2023-09-07T05:50:30;6.27;;;4.60;;
12956;SDS011;6543;48.836;10.092;2023-09-07T05:53:00;6.70;;;5.20;;
12956;SDS011;6543;48.836;10.092;2023-09-07T05:55:27;8.40;;;5.10;;
12956;SDS011;6543;48.836;10.092;2023-09-07T05:57:55;7.40;;;4.67;;
12956;SDS011;6543;48.836;10.092;2023-09-07T06:00:23;8.03;;;4.53;;
12956;SDS011;6543;48.836;10.092;2023-09-07T06:02:50;6.70;;;4.10;;
12956;SDS011;6543;48.836;10.092;2023-09-07T06:05:17;8.80;;;5.33;;
12956;SDS011;6543;48.836;10.092;2023-09-07T06:07:45;9.80;;;4.57;;
12956;SDS011;6543;48.836;10.092;2023-09-07T06:10:11;6.67;;;4.60;;
12956;SDS011;6543;48.836;10.092;2023-09-07T06:12:38;5.20;;;4.33;;
12956;SDS011;6543;48.836;10.092;2023-09-07T06:15:07;8.97;;;4.43;;
12956;SDS011;6543;48.836;10.092;2023-09-07T06:17:35;4.87;;;4.13;;
12956;SDS011;6543;48.836;10.092;2023-09-07T06:20:02;7.40;;;4.70;;
12956;SDS011;6543;48.836;10.092;2023-09-07T06:22:31;7.10;;;5.40;;
12956;SDS011;6543;48.836;10.092;2023-09-07T06:24:57;7.00;;;5.23;;
12956;SDS011;6543;48.836;10.092;2023-09-07T06:27:24;6.13;;;4.23;;
12956;SDS011;6543;48.836;10.092;2023-09-07T06:29:51;6.53;;;4.80;;
12956;SDS011;6543;48.836;10.092;2023-09-07T06:32:19;6.00;;;4.53;;
12956;SDS011;6543;48.836;10.092;2023-09-07T06:34:46;7.33;;;4.53;;
12956;SDS011;6543;48.836;10.092;2023-09-07T06:37:13;6.10;;;4.40;;
12956;SDS011;6543;48.836;10.092;2023-09-07T06:39:40;5.83;;;4.40;;
12956;SDS011;6543;48.836;10.092;2023-09-07T06:42:08;8.03;;;4.77;;
12956;SDS011;6543;48.836;10.092;2023-09-07T06:44:35;7.13;;;4.20;;
12956;SDS011;6543;48.836;10.092;2023-09-07T06:47:02;4.43;;;3.73;;
12956;SDS011;6543;48.836;10.092;2023-09-07T06:49:31;9.37;;;3.73;;
12956;SDS011;6543;48.836;10.092;2023-09-07T06:51:58;6.17;;;4.40;;
12956;SDS011;6543;48.836;10.092;2023-09-07T06:54:25;7.27;;;3.40;;
12956;SDS011;6543;48.836;10.092;2023-09-07T06:56:54;8.27;;;3.70;;
12956;SDS011;6543;48.836;10.092;2023-09-07T06:59:20;4.27;;;3.47;;
12956;SDS011;6543;48.836;10.092;2023-09-07T07:01:47;4.83;;;3.50;;
12956;SDS011;6543;48.836;10.092;2023-09-07T07:04:14;6.63;;;3.90;;
12956;SDS011;6543;48.836;10.092;2023-09-07T07:06:42;3.67;;;3.37;;
12956;SDS011;6543;48.836;10.092;2023-09-07T07:09:09;4.37;;;3.83;;
12956;SDS011;6543;48.836;10.092;2023-09-07T07:11:36;8.10;;;3.40;;
12956;SDS011;6543;48.836;10.092;2023-09-07T07:14:05;9.40;;;5.00;;
12956;SDS011;6543;48.836;10.092;2023-09-07T07:16:33;11.30;;;4.30;;
12956;SDS011;6543;48.836;10.092;2023-09-07T07:19:01;4.90;;;3.50;;
12956;SDS011;6543;48.836;10.092;2023-09-07T07:21:28;5.60;;;3.60;;
12956;SDS011;6543;48.836;10.092;2023-09-07T07:23:56;5.32;;;4.07;;
12956;SDS011;6543;48.836;10.092;2023-09-07T07:26:23;5.20;;;3.70;;
12956;SDS011;6543;48.836;10.092;2023-09-07T07:28:50;5.05;;;3.13;;
12956;SDS011;6543;48.836;10.092;2023-09-07T07:31:17;4.97;;;3.17;;
12956;SDS011;6543;48.836;10.092;2023-09-07T07:33:44;5.70;;;3.47;;
12956;SDS011;6543;48.836;10.092;2023-09-07T07:36:13;5.25;;;2.55;;
12956;SDS011;6543;48.836;10.092;2023-09-07T07:38:39;3.20;;;2.67;;
12956;SDS011;6543;48.836;10.092;2023-09-07T07:41:08;6.60;;;3.28;;
12956;SDS011;6543;48.836;10.092;2023-09-07T07:43:35;6.57;;;3.13;;
12956;SDS011;6543;48.836;10.092;2023-09-07T07:46:01;4.38;;;3.25;;
12956;SDS011;6543;48.836;10.092;2023-09-07T07:48:29;5.45;;;3.15;;
12956;SDS011;6543;48.836;10.092;2023-09-07T07:50:56;4.70;;;2.88;;
12956;SDS011;6543;48.836;10.092;2023-09-07T07:53:23;4.65;;;3.00;;
12956;SDS011;6543;48.836;10.092;2023-09-07T07:55:50;4.18;;;2.95;;
12956;SDS011;6543;48.836;10.092;2023-09-07T07:58:18;4.28;;;3.33;;
12956;SDS011;6543;48.836;10.092;2023-09-07T08:00:45;3.50;;;3.10;;
12956;SDS011;6543;48.836;10.092;2023-09-07T08:03:13;3.63;;;2.80;;
12956;SDS011;6543;48.836;10.092;2023-09-07T08:05:40;8.15;;;3.00;;
12956;SDS011;6543;48.836;10.092;2023-09-07T08:08:07;7.10;;;3.03;;
12956;SDS011;6543;48.836;10.092;2023-09-07T08:10:35;7.60;;;2.95;;
12956;SDS011;6543;48.836;10.092;2023-09-07T08:13:06;3.28;;;2.97;;
12956;SDS011;6543;48.836;10.092;2023-09-07T08:15:38;4.45;;;3.17;;
12956;SDS011;6543;48.836;10.092;2023-09-07T08:18:05;3.40;;;2.85;;
12956;SDS011;6543;48.836;10.092;2023-09-07T08:20:34;6.32;;;3.40;;
12956;SDS011;6543;48.836;10.092;2023-09-07T08:23:01;3.58;;;3.22;;
12956;SDS011;6543;48.836;10.092;2023-09-07T08:25:32;3.55;;;3.22;;
12956;SDS011;6543;48.836;10.092;2023-09-07T08:27:59;3.80;;;3.05;;
12956;SDS011;6543;48.836;10.092;2023-09-07T08:30:30;5.15;;;2.97;;
12956;SDS011;6543;48.836;10.092;2023-09-07T08:32:58;5.22;;;4.13;;
12956;SDS011;6543;48.836;10.092;2023-09-07T08:35:27;6.07;;;3.63;;
12956;SDS011;6543;48.836;10.092;2023-09-07T08:37:55;6.55;;;4.07;;
12956;SDS011;6543;48.836;10.092;2023-09-07T08:40:23;6.93;;;3.53;;
12956;SDS011;6543;48.836;10.092;2023-09-07T08:42:52;7.18;;;4.07;;
12956;SDS011;6543;48.836;10.092;2023-09-07T08:45:19;14.45;;;4.63;;
12956;SDS011;6543;48.836;10.092;2023-09-07T08:47:52;9.68;;;4.35;;
12956;SDS011;6543;48.836;10.092;2023-09-07T08:50:25;7.93;;;3.50;;
12956;SDS011;6543;48.836;10.092;2023-09-07T08:52:53;5.35;;;3.90;;
12956;SDS011;6543;48.836;10.092;2023-09-07T08:55:20;4.50;;;3.42;;
12956;SDS011;6543;48.836;10.092;2023-09-07T08:57:49;3.95;;;3.17;;
12956;SDS011;6543;48.836;10.092;2023-09-07T09:00:16;5.50;;;3.97;;
12956;SDS011;6543;48.836;10.092;2023-09-07T09:02:46;6.25;;;3.50;;
12956;SDS011;6543;48.836;10.092;2023-09-07T09:05:14;9.85;;;4.05;;
12956;SDS011;6543;48.836;10.092;2023-09-07T09:07:44;7.80;;;3.90;;
12956;SDS011;6543;48.836;10.092;2023-09-07T09:10:11;5.85;;;3.60;;
12956;SDS011;6543;48.836;10.092;2023-09-07T09:12:44;7.95;;;4.68;;
12956;SDS011;6543;48.836;10.092;2023-09-07T09:15:12;4.90;;;4.10;;
12956;SDS011;6543;48.836;10.092;2023-09-07T09:17:39;4.95;;;3.17;;
12956;SDS011;6543;48.836;10.092;2023-09-07T09:20:19;5.55;;;3.90;;
12956;SDS011;6543;48.836;10.092;2023-09-07T09:22:49;6.65;;;3.70;;
12956;SDS011;6543;48.836;10.092;2023-09-07T09:25:17;3.80;;;3.50;;
12956;SDS011;6543;48.836;10.092;2023-09-07T09:27:44;5.13;;;3.80;;
12956;SDS011;6543;48.836;10.092;2023-09-07T09:30:11;4.95;;;3.30;;
12956;SDS011;6543;48.836;10.092;2023-09-07T09:32:41;7.28;;;4.10;;
12956;SDS011;6543;48.836;10.092;2023-09-07T09:35:08;6.03;;;3.47;;
12956;SDS011;6543;48.836;10.092;2023-09-07T09:37:43;6.72;;;3.70;;
12956;SDS011;6543;48.836;10.092;2023-09-07T09:40:19;9.20;;;4.03;;
12956;SDS011;6543;48.836;10.092;2023-09-07T09:42:46;7.10;;;3.80;;
12956;SDS011;6543;48.836;10.092;2023-09-07T09:45:15;7.22;;;3.90;;
12956;SDS011;6543;48.836;10.092;2023-09-07T09:47:43;6.35;;;4.60;;
12956;SDS011;6543;48.836;10.092;2023-09-07T09:50:11;7.03;;;3.70;;
12956;SDS011;6543;48.836;10.092;2023-09-07T09:52:38;6.78;;;3.47;;
12956;SDS011;6543;48.836;10.092;2023-09-07T09:55:05;5.25;;;3.00;;
12956;SDS011;6543;48.836;10.092;2023-09-07T09:57:39;5.47;;;3.72;;
12956;SDS011;6543;48.836;10.092;2023-09-07T10:00:06;4.55;;;3.65;;
12956;SDS011;6543;48.836;10.092;2023-09-07T10:03:02;7.22;;;3.22;;
12956;SDS011;6543;48.836;10.092;2023-09-07T10:05:33;5.88;;;3.20;;
12956;SDS011;6543;48.836;10.092;2023-09-07T10:08:00;4.30;;;3.08;;
12956;SDS011;6543;48.836;10.092;2023-09-07T10:10:32;8.07;;;4.53;;
12956;SDS011;6543;48.836;10.092;2023-09-07T10:13:03;4.38;;;3.90;;
12956;SDS011;6543;48.836;10.092;2023-09-07T10:15:30;6.30;;;3.55;;
12956;SDS011;6543;48.836;10.092;2023-09-07T10:18:09;4.40;;;4.00;;
12956;SDS011;6543;48.836;10.092;2023-09-07T10:20:47;3.17;;;2.88;;
12956;SDS011;6543;48.836;10.092;2023-09-07T10:23:19;3.85;;;3.42;;
12956;SDS011;6543;48.836;10.092;2023-09-07T10:25:49;7.30;;;3.78;;
12956;SDS011;6543;48.836;10.092;2023-09-07T10:28:19;4.20;;;3.78;;
12956;SDS011;6543;48.836;10.092;2023-09-07T10:30:57;10.82;;;5.50;;
12956;SDS011;6543;48.836;10.092;2023-09-07T10:33:25;5.07;;;3.50;;
12956;SDS011;6543;48.836;10.092;2023-09-07T10:35:52;4.55;;;3.70;;
12956;SDS011;6543;48.836;10.092;2023-09-07T10:38:19;3.83;;;3.28;;
12956;SDS011;6543;48.836;10.092;2023-09-07T10:40:47;5.13;;;3.72;;
12956;SDS011;6543;48.836;10.092;2023-09-07T10:43:14;6.30;;;3.70;;
12956;SDS011;6543;48.836;10.092;2023-09-07T10:45:45;5.03;;;3.85;;
12956;SDS011;6543;48.836;10.092;2023-09-07T10:48:12;7.72;;;3.30;;
12956;SDS011;6543;48.836;10.092;2023-09-07T10:50:42;3.40;;;3.10;;
12956;SDS011;6543;48.836;10.092;2023-09-07T10:53:11;3.92;;;3.20;;
12956;SDS011;6543;48.836;10.092;2023-09-07T10:55:39;9.52;;;3.50;;
12956;SDS011;6543;48.836;10.092;2023-09-07T10:58:08;6.30;;;3.35;;
12956;SDS011;6543;48.836;10.092;2023-09-07T11:00:35;5.20;;;3.30;;
12956;SDS011;6543;48.836;10.092;2023-09-07T11:03:08;10.20;;;3.47;;
12956;SDS011;6543;48.836;10.092;2023-09-07T11:05:36;3.20;;;2.85;;
12956;SDS011;6543;48.836;10.092;2023-09-07T11:08:05;3.42;;;3.10;;
12956;SDS011;6543;48.836;10.092;2023-09-07T11:10:33;6.60;;;4.07;;
12956;SDS011;6543;48.836;10.092;2023-09-07T11:13:04;5.78;;;3.10;;
12956;SDS011;6543;48.836;10.092;2023-09-07T11:15:33;4.28;;;3.60;;
12956;SDS011;6543;48.836;10.092;2023-09-07T11:18:03;4.93;;;3.33;;
12956;SDS011;6543;48.836;10.092;2023-09-07T11:20:34;4.22;;;3.45;;
12956;SDS011;6543;48.836;10.092;2023-09-07T11:23:02;6.85;;;3.22;;
12956;SDS011;6543;48.836;10.092;2023-09-07T11:25:33;4.47;;;3.10;;
12956;SDS011;6543;48.836;10.092;2023-09-07T11:28:02;9.05;;;3.30;;
12956;SDS011;6543;48.836;10.092;2023-09-07T11:30:48;6.28;;;3.10;;
12956;SDS011;6543;48.836;10.092;2023-09-07T11:33:16;7.00;;;3.70;;
12956;SDS011;6543;48.836;10.092;2023-09-07T11:35:45;4.47;;;3.25;;
12956;SDS011;6543;48.836;10.092;2023-09-07T11:38:12;8.20;;;3.28;;
12956;SDS011;6543;48.836;10.092;2023-09-07T11:40:40;4.32;;;3.30;;
12956;SDS011;6543;48.836;10.092;2023-09-07T11:43:09;5.60;;;2.95;;
12956;SDS011;6543;48.836;10.092;2023-09-07T11:45:52;10.30;;;3.25;;
12956;SDS011;6543;48.836;10.092;2023-09-07T11:48:19;6.57;;;3.00;;
12956;SDS011;6543;48.836;10.092;2023-09-07T11:50:48;5.40;;;3.70;;
12956;SDS011;6543;48.836;10.092;2023-09-07T11:53:15;5.25;;;3.25;;
12956;SDS011;6543;48.836;10.092;2023-09-07T11:55:41;5.50;;;3.10;;
12956;SDS011;6543;48.836;10.092;2023-09-07T11:58:08;3.63;;;2.85;;
12956;SDS011;6543;48.836;10.092;2023-09-07T12:00:35;7.32;;;3.35;;
12956;SDS011;6543;48.836;10.092;2023-09-07T12:03:02;7.10;;;3.45;;
12956;SDS011;6543;48.836;10.092;2023-09-07T12:05:30;6.70;;;3.50;;
12956;SDS011;6543;48.836;10.092;2023-09-07T12:07:58;5.13;;;3.25;;
12956;SDS011;6543;48.836;10.092;2023-09-07T12:10:25;7.38;;;3.45;;
12956;SDS011;6543;48.836;10.092;2023-09-07T12:12:52;6.72;;;3.65;;
12956;SDS011;6543;48.836;10.092;2023-09-07T12:15:19;5.72;;;3.60;;
12956;SDS011;6543;48.836;10.092;2023-09-07T12:17:46;4.22;;;3.45;;
12956;SDS011;6543;48.836;10.092;2023-09-07T12:20:14;8.07;;;3.55;;
12956;SDS011;6543;48.836;10.092;2023-09-07T12:22:41;4.47;;;3.15;;
12956;SDS011;6543;48.836;10.092;2023-09-07T12:25:10;5.00;;;3.20;;
12956;SDS011;6543;48.836;10.092;2023-09-07T12:27:38;4.90;;;3.03;;
12956;SDS011;6543;48.836;10.092;2023-09-07T12:30:06;5.25;;;3.10;;
12956;SDS011;6543;48.836;10.092;2023-09-07T12:32:37;5.30;;;3.50;;
12956;SDS011;6543;48.836;10.092;2023-09-07T12:35:04;4.57;;;3.20;;
12956;SDS011;6543;48.836;10.092;2023-09-07T12:37:33;7.55;;;2.85;;
12956;SDS011;6543;48.836;10.092;2023-09-07T12:40:01;4.13;;;3.47;;
12956;SDS011;6543;48.836;10.092;2023-09-07T12:42:31;8.95;;;2.95;;
12956;SDS011;6543;48.836;10.092;2023-09-07T12:44:58;6.78;;;3.20;;
12956;SDS011;6543;48.836;10.092;2023-09-07T12:47:25;4.93;;;3.08;;
12956;SDS011;6543;48.836;10.092;2023-09-07T12:49:51;4.25;;;3.35;;
12956;SDS011;6543;48.836;10.092;2023-09-07T12:52:18;4.85;;;2.80;;
12956;SDS011;6543;48.836;10.092;2023-09-07T12:54:47;7.60;;;3.45;;
12956;SDS011;6543;48.836;10.092;2023-09-07T12:57:14;3.92;;;3.10;;
12956;SDS011;6543;48.836;10.092;2023-09-07T12:59:42;5.70;;;2.70;;
12956;SDS011;6543;48.836;10.092;2023-09-07T13:02:09;2.88;;;2.67;;
12956;SDS011;6543;48.836;10.092;2023-09-07T13:04:37;3.22;;;2.92;;
12956;SDS011;6543;48.836;10.092;2023-09-07T13:07:04;3.45;;;3.03;;
12956;SDS011;6543;48.836;10.092;2023-09-07T13:09:31;6.30;;;3.30;;
12956;SDS011;6543;48.836;10.092;2023-09-07T13:11:58;5.53;;;3.70;;
12956;SDS011;6543;48.836;10.092;2023-09-07T13:14:25;3.20;;;2.60;;
12956;SDS011;6543;48.836;10.092;2023-09-07T13:16:54;6.05;;;3.10;;
12956;SDS011;6543;48.836;10.092;2023-09-07T13:19:21;5.20;;;3.17;;
12956;SDS011;6543;48.836;10.092;2023-09-07T13:21:48;3.88;;;3.17;;
12956;SDS011;6543;48.836;10.092;2023-09-07T13:24:15;4.65;;;3.30;;
12956;SDS011;6543;48.836;10.092;2023-09-07T13:26:56;3.53;;;3.22;;
12956;SDS011;6543;48.836;10.092;2023-09-07T13:29:23;6.85;;;3.30;;
12956;SDS011;6543;48.836;10.092;2023-09-07T13:31:51;3.17;;;2.88;;
12956;SDS011;6543;48.836;10.092;2023-09-07T13:34:21;3.63;;;3.10;;
12956;SDS011;6543;48.836;10.092;2023-09-07T13:36:52;3.72;;;3.08;;
12956;SDS011;6543;48.836;10.092;2023-09-07T13:39:19;4.85;;;3.03;;
12956;SDS011;6543;48.836;10.092;2023-09-07T13:41:46;4.68;;;3.00;;
12956;SDS011;6543;48.836;10.092;2023-09-07T13:44:13;3.70;;;3.13;;
12956;SDS011;6543;48.836;10.092;2023-09-07T13:46:41;5.47;;;2.90;;
12956;SDS011;6543;48.836;10.092;2023-09-07T13:49:09;4.20;;;3.20;;
12956;SDS011;6543;48.836;10.092;2023-09-07T13:51:39;5.50;;;2.83;;
12956;SDS011;6543;48.836;10.092;2023-09-07T13:54:06;5.38;;;3.28;;
12956;SDS011;6543;48.836;10.092;2023-09-07T13:56:34;8.32;;;3.30;;
12956;SDS011;6543;48.836;10.092;2023-09-07T13:59:02;4.30;;;3.30;;
12956;SDS011;6543;48.836;10.092;2023-09-07T14:01:29;4.80;;;3.25;;
12956;SDS011;6543;48.836;10.092;2023-09-07T14:03:56;8.57;;;3.97;;
12956;SDS011;6543;48.836;10.092;2023-09-07T14:06:24;4.82;;;3.13;;
12956;SDS011;6543;48.836;10.092;2023-09-07T14:08:52;9.27;;;3.15;;
12956;SDS011;6543;48.836;10.092;2023-09-07T14:11:20;5.47;;;3.00;;
12956;SDS011;6543;48.836;10.092;2023-09-07T14:13:47;6.22;;;3.00;;
12956;SDS011;6543;48.836;10.092;2023-09-07T14:16:16;4.40;;;3.28;;
12956;SDS011;6543;48.836;10.092;2023-09-07T14:18:44;3.22;;;3.00;;
12956;SDS011;6543;48.836;10.092;2023-09-07T14:21:12;6.28;;;3.28;;
12956;SDS011;6543;48.836;10.092;2023-09-07T14:23:39;6.43;;;3.10;;
12956;SDS011;6543;48.836;10.092;2023-09-07T14:26:09;4.85;;;3.47;;
12956;SDS011;6543;48.836;10.092;2023-09-07T14:28:36;8.13;;;3.30;;
12956;SDS011;6543;48.836;10.092;2023-09-07T14:31:04;3.25;;;2.95;;
12956;SDS011;6543;48.836;10.092;2023-09-07T14:33:32;4.07;;;2.95;;
12956;SDS011;6543;48.836;10.092;2023-09-07T14:36:02;6.72;;;3.42;;
12956;SDS011;6543;48.836;10.092;2023-09-07T14:38:29;5.70;;;3.10;;
12956;SDS011;6543;48.836;10.092;2023-09-07T14:40:59;4.53;;;3.00;;
12956;SDS011;6543;48.836;10.092;2023-09-07T14:43:29;3.70;;;2.85;;
12956;SDS011;6543;48.836;10.092;2023-09-07T14:45:56;5.10;;;3.30;;
12956;SDS011;6543;48.836;10.092;2023-09-07T14:48:24;4.30;;;3.20;;
12956;SDS011;6543;48.836;10.092;2023-09-07T14:50:52;4.20;;;3.30;;
12956;SDS011;6543;48.836;10.092;2023-09-07T14:53:19;4.60;;;2.83;;